Terminal Aerodrome Forecast
Issued by NWS Green Bay, WI

Home | Current Version | Previous Version | Text Only | Print | Product List | Glossary On
Versions: 1 2 3 4 5 6 7 8 9 10 11 12 13 14 15 16 17 18 19 20 21 22 23 24 25 26 27 28 29 30 31 32 33 34 35 36 37 38 39 40 41 42 43 44 45 46 47 48 49
000
FTUS43 KGRB 311720
TAFGRB
TAF
KGRB 311720Z 3118/0118 24008KT P6SM BKN020
     FM311930 22008KT P6SM SCT025
     FM010100 19003KT P6SM SKC
     FM010400 VRB03KT 5SM BR SCT015
     FM010900 VRB03KT 3SM BR FEW007 SCT015
      TEMPO 0110/0114 1 1/2SM BR SCT007
     FM011400 21008KT P6SM SCT015=

USA.gov is the U.S. government's official web portal to all federal, state and local government web resources and services.